地図

経路データ

SID SEASON NUMBER BASIN SUBBASIN NAME ISO_TIME NATURE LAT LON WMO_WIND WMO_PRES WMO_AGENCY TRACK_TYPE DIST2LAND LANDFALL IFLAG USA_AGENCY USA_ATCF_ID USA_LAT USA_LON USA_RECORD USA_STATUS USA_WIND USA_PRES USA_SSHS USA_R34_NE USA_R34_SE USA_R34_SW USA_R34_NW USA_R50_NE USA_R50_SE USA_R50_SW USA_R50_NW USA_R64_NE USA_R64_SE USA_R64_SW USA_R64_NW USA_POCI USA_ROCI USA_RMW USA_EYE TOKYO_LAT TOKYO_LON TOKYO_GRADE TOKYO_WIND TOKYO_PRES TOKYO_R50_DIR TOKYO_R50_LONG TOKYO_R50_SHORT TOKYO_R30_DIR TOKYO_R30_LONG TOKYO_R30_SHORT TOKYO_LAND CMA_LAT CMA_LON CMA_CAT CMA_WIND CMA_PRES HKO_LAT HKO_LON HKO_CAT HKO_WIND HKO_PRES NEWDELHI_LAT NEWDELHI_LON NEWDELHI_GRADE NEWDELHI_WIND NEWDELHI_PRES NEWDELHI_CI NEWDELHI_DP NEWDELHI_POCI REUNION_LAT REUNION_LON REUNION_TYPE REUNION_WIND REUNION_PRES REUNION_TNUM REUNION_CI REUNION_RMW REUNION_R34_NE REUNION_R34_SE REUNION_R34_SW REUNION_R34_NW REUNION_R50_NE REUNION_R50_SE REUNION_R50_SW REUNION_R50_NW REUNION_R64_NE REUNION_R64_SE REUNION_R64_SW REUNION_R64_NW BOM_LAT BOM_LON BOM_TYPE BOM_WIND BOM_PRES BOM_TNUM BOM_CI BOM_RMW BOM_R34_NE BOM_R34_SE BOM_R34_SW BOM_R34_NW BOM_R50_NE BOM_R50_SE BOM_R50_SW BOM_R50_NW BOM_R64_NE BOM_R64_SE BOM_R64_SW BOM_R64_NW BOM_ROCI BOM_POCI BOM_EYE BOM_POS_METHOD BOM_PRES_METHOD NADI_LAT NADI_LON NADI_CAT NADI_WIND NADI_PRES WELLINGTON_LAT WELLINGTON_LON WELLINGTON_WIND WELLINGTON_PRES DS824_LAT DS824_LON DS824_STAGE DS824_WIND DS824_PRES TD9636_LAT TD9636_LON TD9636_STAGE TD9636_WIND TD9636_PRES TD9635_LAT TD9635_LON TD9635_WIND TD9635_PRES TD9635_ROCI NEUMANN_LAT NEUMANN_LON NEUMANN_CLASS NEUMANN_WIND NEUMANN_PRES MLC_LAT MLC_LON MLC_CLASS MLC_WIND MLC_PRES USA_GUST BOM_GUST BOM_GUST_PER REUNION_GUST REUNION_GUST_PER USA_SEAHGT USA_SEARAD_NE USA_SEARAD_SE USA_SEARAD_SW USA_SEARAD_NW STORM_SPEED STORM_DIR
1966155N13276 1966 31 NA NA ALMA 1966-06-04 06:00:00 TS 12.7000 -84.0000 25 atcf main 0 0 O_____________ atcf AL011966 12.7000 -84.0000 TD 25 -1 7 331
1966155N13276 1966 31 NA NA ALMA 1966-06-04 09:00:00 TS 12.9925 -84.1599 main 0 0 P_____________ AL011966 12.9925 -84.1599 TD 25 -1 7 334
1966155N13276 1966 31 NA NA ALMA 1966-06-04 12:00:00 TS 13.3000 -84.3000 25 atcf main 0 0 O_____________ atcf AL011966 13.3000 -84.3000 TD 25 -1 7 339
1966155N13276 1966 31 NA NA ALMA 1966-06-04 15:00:00 TS 13.6350 -84.4076 main 0 0 P_____________ AL011966 13.6350 -84.4076 TD 25 -1 7 345
1966155N13276 1966 31 NA NA ALMA 1966-06-04 18:00:00 TS 14.0000 -84.5000 25 atcf main 0 0 O_____________ atcf AL011966 14.0000 -84.5000 TD 25 -1 8 346
1966155N13276 1966 31 NA NA ALMA 1966-06-04 21:00:00 TS 14.4000 -84.6075 main 0 0 P_____________ AL011966 14.4000 -84.6075 TD 25 -1 8 346
1966155N13276 1966 31 NA NA ALMA 1966-06-05 00:00:00 TS 14.8000 -84.7000 25 atcf main 0 0 O_____________ atcf AL011966 14.8000 -84.7000 TD 25 -1 8 349
1966155N13276 1966 31 NA NA ALMA 1966-06-05 03:00:00 TS 15.1500 -84.7650 main 0 0 P_____________ AL011966 15.1500 -84.7650 TD 25 -1 7 352
1966155N13276 1966 31 NA NA ALMA 1966-06-05 06:00:00 TS 15.5000 -84.8000 25 atcf main 0 0 O_____________ atcf AL011966 15.5000 -84.8000 TD 25 -1 8 356
1966155N13276 1966 31 NA CS ALMA 1966-06-05 09:00:00 TS 15.9075 -84.8075 main 0 0 P_____________ AL011966 15.9150 -84.8150 TD 27 -1 8 1
1966155N13276 1966 31 NA CS ALMA 1966-06-05 12:00:00 TS 16.3000 -84.8000 30 1006 hurdat_atl main 44 44 O_____________ hurdat_atl AL011966 16.3000 -84.8000 TD 30 1006 -1 7 1
1966155N13276 1966 31 NA CS ALMA 1966-06-05 15:00:00 TS 16.6017 -84.7875 main 78 78 P_____________ AL011966 16.5725 -84.7575 TD 30 -1 6 3
1966155N13276 1966 31 NA CS ALMA 1966-06-05 18:00:00 TS 16.8571 -84.7571 30 hurdat_atl main 111 111 O_____________ hurdat_atl AL011966 16.8000 -84.7000 TD 30 -1 5 8
1966155N13276 1966 31 NA CS ALMA 1966-06-05 21:00:00 TS 17.0900 -84.7150 main 134 134 P_____________ AL011966 17.0650 -84.6575 TD 32 -1 5 13
1966155N13276 1966 31 NA CS ALMA 1966-06-06 00:00:00 TS 17.3000 -84.6500 35 hurdat_atl main 157 157 O_____________ hurdat_atl AL011966 17.3000 -84.6000 TS 35 0 4 24
1966155N13276 1966 31 NA CS ALMA 1966-06-06 03:00:00 TS 17.4788 -84.5325 main 180 180 P_____________ AL011966 17.4575 -84.5075 TS 37 0 4 34
1966155N13276 1966 31 NA CS ALMA 1966-06-06 06:00:00 TS 17.6500 -84.4000 40 1000 hurdat_atl main 203 203 O_____________ hurdat_atl AL011966 17.6000 -84.4000 TS 40 1000 0 4 33
1966155N13276 1966 31 NA CS ALMA 1966-06-06 09:00:00 TS 17.8425 -84.2887 main 216 216 P_____________ AL011966 17.7850 -84.2925 TS 45 998 0 4 25
1966155N13276 1966 31 NA CS ALMA 1966-06-06 12:00:00 TS 18.0500 -84.2000 50 996 hurdat_atl main 251 240 O_____________ hurdat_atl AL011966 18.0000 -84.2000 TS 50 996 0 5 18
1966155N13276 1966 31 NA CS ALMA 1966-06-06 15:00:00 TS 18.2787 -84.1425 main 276 276 P_____________ AL011966 18.2575 -84.1425 TS 57 993 0 5 12
1966155N13276 1966 31 NA CS ALMA 1966-06-06 18:00:00 TS 18.5000 -84.1000 65 990 hurdat_atl main 297 297 O_____________ hurdat_atl AL011966 18.5000 -84.1000 HU 65 990 1 4 12
1966155N13276 1966 31 NA CS ALMA 1966-06-06 21:00:00 TS 18.6900 -84.0500 main 322 316 P_____________ AL011966 18.6725 -84.0500 HU 65 990 1 4 15
1966155N13276 1966 31 NA CS ALMA 1966-06-07 00:00:00 TS 18.8500 -84.0000 65 990 hurdat_atl main 306 291 O_____________ hurdat_atl AL011966 18.8000 -84.0000 HU 65 990 1 3 19
1966155N13276 1966 31 NA CS ALMA 1966-06-07 03:00:00 TS 18.9825 -83.9462 main 291 281 P_____________ AL011966 18.9000 -83.9425 HU 65 988 1 3 21
1966155N13276 1966 31 NA CS ALMA 1966-06-07 06:00:00 TS 19.1000 -83.9000 65 986 hurdat_atl main 281 271 O_____________ hurdat_atl AL011966 19.0000 -83.9000 HU 65 986 1 2 15
1966155N13276 1966 31 NA CS ALMA 1966-06-07 09:00:00 TS 19.2212 -83.8750 main 271 261 P_____________ AL011966 19.1425 -83.9000 HU 67 984 1 3 9
1966155N13276 1966 31 NA CS ALMA 1966-06-07 12:00:00 TS 19.3500 -83.8500 70 983 hurdat_atl main 251 236 O_____________ hurdat_atl AL011966 19.3000 -83.9000 HU 70 983 1 3 11
1966155N13276 1966 31 NA CS ALMA 1966-06-07 15:00:00 TS 19.4850 -83.8149 main 236 226 P_____________ AL011966 19.4350 -83.8724 HU 72 981 1 3 17
1966155N13276 1966 31 NA CS ALMA 1966-06-07 18:00:00 TS 19.6500 -83.7500 75 hurdat_atl main 211 201 I_____________ hurdat_atl AL011966 19.6000 -83.8000 HU 75 979 1 4 25
1966155N13276 1966 31 NA CS ALMA 1966-06-07 21:00:00 TS 19.8187 -83.6510 main 201 162 P_____________ AL011966 19.7975 -83.6724 HU 77 977 1 5 27
1966155N13276 1966 31 NA CS ALMA 1966-06-08 00:00:00 TS 20.1000 -83.5000 80 976 hurdat_atl main 162 113 O_____________ hurdat_atl AL011966 20.1000 -83.5000 HU 80 976 1 8 24
1966155N13276 1966 31 NA CS ALMA 1966-06-08 03:00:00 TS 20.5560 -83.3011 main 103 45 P_____________ AL011966 20.5444 -83.3296 HU 82 1 11 22
1966155N13276 1966 31 NA CS ALMA 1966-06-08 06:00:00 TS 21.1500 -83.0500 85 hurdat_atl main 30 0 O_____________ hurdat_atl AL011966 21.1000 -83.1000 HU 85 2 13 22
1966155N13276 1966 31 NA CS ALMA 1966-06-08 08:00:00 TS 21.5842 -82.8560 85 hurdat_atl main 0 0 O_____________ hurdat_atl AL011966 21.5000 -82.9000 L HU 85 2 15 21
1966155N13276 1966 31 NA CS ALMA 1966-06-08 09:00:00 TS 21.8408 -82.7725 main 0 0 P_____________ AL011966 21.7616 -82.8246 HU 86 2 17 12
1966155N13276 1966 31 NA CS ALMA 1966-06-08 12:00:00 TS 22.7000 -82.6000 90 hurdat_atl main 0 0 O_____________ hurdat_atl AL011966 22.7000 -82.7000 L HU 90 2 17 8
1966155N13276 1966 31 NA NA ALMA 1966-06-08 15:00:00 TS 23.5081 -82.5313 main 44 44 P_____________ AL011966 23.5662 -82.6653 HU 95 2 16 1
1966155N13276 1966 31 NA NA ALMA 1966-06-08 18:00:00 TS 24.3000 -82.5500 100 hurdat_atl main 134 134 O_____________ hurdat_atl AL011966 24.4000 -82.7000 HU 100 3 16 358
1966155N13276 1966 31 NA GM ALMA 1966-06-08 21:00:00 TS 25.0786 -82.5731 main 127 95 P_____________ AL011966 25.2149 -82.7057 HU 95 2 16 355
1966155N13276 1966 31 NA GM ALMA 1966-06-09 00:00:00 TS 25.8500 -82.7000 90 974 hurdat_atl main 92 63 O_____________ hurdat_atl AL011966 26.0000 -82.8000 HU 90 974 2 16 347
1966155N13276 1966 31 NA GM ALMA 1966-06-09 03:00:00 TS 26.6361 -82.9614 main 72 59 P_____________ AL011966 26.7724 -83.0400 HU 90 973 2 17 339
1966155N13276 1966 31 NA GM ALMA 1966-06-09 06:00:00 TS 27.4000 -83.3500 90 hurdat_atl main 74 63 I_____________ hurdat_atl AL011966 27.5000 -83.4000 HU 90 972 2 17 332
1966155N13276 1966 31 NA GM ALMA 1966-06-09 09:00:00 TS 28.1530 -83.8825 main 103 103 P_____________ AL011966 28.2029 -83.8791 HU 90 971 2 17 328
1966155N13276 1966 31 NA GM ALMA 1966-06-09 12:00:00 TS 28.8000 -84.3500 90 970 hurdat_atl main 111 62 O_____________ hurdat_atl AL011966 28.8000 -84.3000 HU 90 970 2 13 331
1966155N13276 1966 31 NA GM ALMA 1966-06-09 15:00:00 TS 29.2652 -84.5753 main 53 24 P_____________ AL011966 29.2133 -84.5298 HU 82 975 1 9 348
1966155N13276 1966 31 NA GM ALMA 1966-06-09 18:00:00 TS 29.6500 -84.5500 75 981 hurdat_atl main 22 0 O_____________ hurdat_atl AL011966 29.6000 -84.5000 HU 75 981 1 8 16
1966155N13276 1966 31 NA GM ALMA 1966-06-09 21:00:00 TS 30.0574 -84.3236 75 982 hurdat_atl main 0 0 O_____________ hurdat_atl AL011966 30.1000 -84.2000 L HU 75 982 1 8 32
1966155N13276 1966 31 NA NA ALMA 1966-06-10 00:00:00 TS 30.3500 -84.0500 60 hurdat_atl main 0 0 O_____________ hurdat_atl AL011966 30.4000 -84.0000 TS 60 0 9 45
1966155N13276 1966 31 NA NA ALMA 1966-06-10 03:00:00 TS 30.6948 -83.5784 main 0 0 P_____________ AL011966 30.7468 -83.5617 TS 52 0 11 52
1966155N13276 1966 31 NA NA ALMA 1966-06-10 06:00:00 TS 31.0500 -83.0000 45 hurdat_atl main 0 0 O_____________ hurdat_atl AL011966 31.1000 -83.0000 TS 45 0 12 53
1966155N13276 1966 31 NA NA ALMA 1966-06-10 09:00:00 TS 31.3935 -82.4786 main 0 0 P_____________ AL011966 31.4147 -82.5071 TS 42 0 11 54
1966155N13276 1966 31 NA NA ALMA 1966-06-10 12:00:00 TS 31.7000 -81.9500 40 995 hurdat_atl main 0 0 O_____________ hurdat_atl AL011966 31.7000 -82.0000 TS 40 995 0 11 59
1966155N13276 1966 31 NA NA ALMA 1966-06-10 15:00:00 TS 31.9434 -81.4145 main 0 0 P_____________ AL011966 31.9646 -81.4722 TS 40 996 0 10 64
1966155N13276 1966 31 NA NA ALMA 1966-06-10 18:00:00 TS 32.1500 -80.8500 40 998 hurdat_atl main 0 0 O_____________ hurdat_atl AL011966 32.2000 -80.9000 TS 40 998 0 11 68
1966155N13276 1966 31 NA NA ALMA 1966-06-10 21:00:00 TS 32.3421 -80.2506 main 21 14 P_____________ AL011966 32.3996 -80.2794 TS 45 997 0 11 69
1966155N13276 1966 31 NA NA ALMA 1966-06-11 00:00:00 TS 32.5500 -79.6000 50 997 hurdat_atl main 29 29 O_____________ hurdat_atl AL011966 32.6000 -79.6000 TS 50 997 0 12 68
1966155N13276 1966 31 NA NA ALMA 1966-06-11 03:00:00 TS 32.8098 -78.8898 main 51 50 P_____________ AL011966 32.8349 -78.8572 TS 52 995 0 13 66
1966155N13276 1966 31 NA NA ALMA 1966-06-11 06:00:00 TS 33.1000 -78.1500 55 hurdat_atl main 89 66 I_____________ hurdat_atl AL011966 33.1000 -78.1000 TS 55 993 0 14 63
1966155N13276 1966 31 NA NA ALMA 1966-06-11 09:00:00 TS 33.4335 -77.4144 main 78 71 P_____________ AL011966 33.4221 -77.3854 TS 60 991 0 14 64
1966155N13276 1966 31 NA NA ALMA 1966-06-11 12:00:00 TS 33.7000 -76.7000 65 990 hurdat_atl main 109 100 O_____________ hurdat_atl AL011966 33.7000 -76.7000 HU 65 990 1 12 72
1966155N13276 1966 31 NA NA ALMA 1966-06-11 15:00:00 TS 33.7983 -76.0305 main 110 110 P_____________ AL011966 33.8521 -76.0346 HU 70 1 11 85
1966155N13276 1966 31 NA NA ALMA 1966-06-11 18:00:00 TS 33.8000 -75.4000 75 hurdat_atl main 142 142 O_____________ hurdat_atl AL011966 33.9000 -75.4000 HU 75 1 11 93
1966155N13276 1966 31 NA NA ALMA 1966-06-11 21:00:00 TS 33.7413 -74.7541 main 191 191 P_____________ AL011966 33.8276 -74.7539 HU 75 1 10 93
1966155N13276 1966 31 NA NA ALMA 1966-06-12 00:00:00 TS 33.7500 -74.2000 75 hurdat_atl main 228 228 O_____________ hurdat_atl AL011966 33.8000 -74.2000 HU 75 1 8 74
1966155N13276 1966 31 NA NA ALMA 1966-06-12 03:00:00 TS 33.9760 -73.7756 main 248 246 P_____________ AL011966 33.9972 -73.7756 HU 72 1 8 47
1966155N13276 1966 31 NA NA ALMA 1966-06-12 06:00:00 TS 34.3000 -73.5000 70 hurdat_atl main 246 232 O_____________ hurdat_atl AL011966 34.3000 -73.5000 HU 70 1 7 30
1966155N13276 1966 31 NA NA ALMA 1966-06-12 09:00:00 TS 34.5886 -73.3472 main 240 222 P_____________ AL011966 34.5848 -73.3473 HU 67 1 6 15
1966155N13276 1966 31 NA NA ALMA 1966-06-12 12:00:00 TS 34.9000 -73.3000 65 994 hurdat_atl main 222 209 O_____________ hurdat_atl AL011966 34.9000 -73.3000 HU 65 994 1 7 5
1966155N13276 1966 31 NA NA ALMA 1966-06-12 15:00:00 TS 35.2425 -73.2811 main 209 199 P_____________ AL011966 35.2425 -73.2774 HU 62 0 7 0
1966155N13276 1966 31 NA NA ALMA 1966-06-12 18:00:00 TS 35.6000 -73.3000 60 hurdat_atl main 199 197 O_____________ hurdat_atl AL011966 35.6000 -73.3000 TS 60 0 7 358
1966155N13276 1966 31 NA NA ALMA 1966-06-12 21:00:00 TS 35.9500 -73.3138 main 198 198 P_____________ AL011966 35.9500 -73.3425 TS 57 0 7 357
1966155N13276 1966 31 NA NA ALMA 1966-06-13 00:00:00 MX 36.3000 -73.3500 55 hurdat_atl main 205 196 O_____________ hurdat_atl AL011966 36.3000 -73.4000 EX 55 -4 7 353
1966155N13276 1966 31 NA NA ALMA 1966-06-13 03:00:00 MX 36.6575 -73.4286 main 211 197 P_____________ AL011966 36.6575 -73.4574 EX 52 -4 7 350
1966155N13276 1966 31 NA NA ALMA 1966-06-13 06:00:00 MX 37.0000 -73.5000 50 hurdat_atl main 197 172 O_____________ hurdat_atl AL011966 37.0000 -73.5000 EX 50 -4 7 351
1966155N13276 1966 31 NA NA ALMA 1966-06-13 09:00:00 MX 37.3074 -73.5559 main 172 158 P_____________ AL011966 37.3074 -73.5521 EX 47 -4 6 1
1966155N13276 1966 31 NA NA ALMA 1966-06-13 12:00:00 MX 37.6000 -73.5000 45 hurdat_atl main 160 154 O_____________ hurdat_atl AL011966 37.6000 -73.5000 EX 45 -4 6 23
1966155N13276 1966 31 NA NA ALMA 1966-06-13 15:00:00 MX 37.8700 -73.2596 main 163 163 P_____________ AL011966 37.8700 -73.2596 EX 45 -4 8 38
1966155N13276 1966 31 NA NA ALMA 1966-06-13 18:00:00 ET 38.2000 -72.9000 45 1002 hurdat_atl main 185 177 O_____________ hurdat_atl AL011966 38.2000 -72.9000 EX 45 1002 -4 10 37
1966155N13276 1966 31 NA NA ALMA 1966-06-13 21:00:00 ET 38.6401 -72.5110 main 184 178 P_____________ AL011966 38.6401 -72.5073 EX 42 -4 12 32
1966155N13276 1966 31 NA NA ALMA 1966-06-14 00:00:00 ET 39.2000 -72.1000 40 hurdat_atl main 183 130 O_____________ hurdat_atl AL011966 39.2000 -72.1000 EX 40 -4 14 26
1966155N13276 1966 31 NA NA ALMA 1966-06-14 03:00:00 ET 39.8698 -71.7281 main 125 88 P_____________ AL011966 39.8697 -71.7566 EX 40 -4 15 22
1966155N13276 1966 31 NA NA ALMA 1966-06-14 06:00:00 ET 40.6000 -71.3500 40 hurdat_atl main 90 22 O_____________ hurdat_atl AL011966 40.6000 -71.4000 EX 40 -4 16 23
1966155N13276 1966 31 NA NA ALMA 1966-06-14 09:00:00 ET 41.3104 -70.9381 main 23 0 P_____________ AL011966 41.3105 -70.9747 EX 40 -4 15 24
1966155N13276 1966 31 NA NA ALMA 1966-06-14 12:00:00 ET 42.0000 -70.5000 40 hurdat_atl main 8 O_____________ hurdat_atl AL011966 42.0000 -70.5000 EX 40 -4 15 25

IBTrACS Databaseについて

本データベースは、米国NOAAが公開する1842年以降の世界の熱帯低気圧のベストトラックデータアーカイブInternational Best Track Archive for Climate Stewardship (IBTrACS)を、ウェブで閲覧しやすい形式に変換したものです。

最終更新日:2022-06-24